Berettyoujfalu, Hungary
Current Conditions -  °F | °C
As of 12:45 PM on Friday 24 Oct 2014 (Local Time) from LHDC Reporting Station
Light Rain Light Rain  
Wind Chill: 41°   Ceiling: 500
Heat Index: 46°   Visibility: 2.8mi
Dew Point: 45°   Wind: 10mph
Humidity: 93%   Direction: 30°NNE
Pressure: 30.03"   Gusts: NA
Location:  47.23°N, 21.54°E
Report Text: LHDC 241045Z 03009KT 4500 -RA BKN005 OVC013 08/07 Q1017 NOSIG
Loading
Personal Weather Stations






























Interactive Weather Map
Tropical Storm Tracking
New forecast layout! Learn more

10-Day Weather Forecast

Advertisements
Track Severe Weather on mobile